createdAt,value
2018-09-11T00:01:54.941Z,14.30
2018-09-11T00:04:23.932Z,14.30
2018-09-11T00:06:53.137Z,14.40
2018-09-11T00:09:22.082Z,14.40
2018-09-11T00:11:51.013Z,14.40
2018-09-11T00:14:20.051Z,14.40
2018-09-11T00:16:49.040Z,14.40
2018-09-11T00:19:18.069Z,14.50
2018-09-11T00:21:47.019Z,14.50
2018-09-11T00:24:15.938Z,14.50
2018-09-11T00:26:44.973Z,14.50
2018-09-11T00:29:13.997Z,14.60
2018-09-11T00:31:43.008Z,14.60
2018-09-11T00:34:11.963Z,14.70
2018-09-11T00:36:40.992Z,14.80
2018-09-11T00:39:10.034Z,14.80
2018-09-11T00:41:40.282Z,14.80
2018-09-11T00:44:09.234Z,14.90
2018-09-11T00:46:38.212Z,14.90
2018-09-11T00:49:07.553Z,14.90
2018-09-11T00:51:36.589Z,14.90
2018-09-11T00:54:05.526Z,14.90
2018-09-11T00:56:34.615Z,14.90
2018-09-11T00:59:03.576Z,14.90
2018-09-11T01:01:32.680Z,14.90
2018-09-11T01:04:01.618Z,15.00
2018-09-11T01:06:30.661Z,15.00
2018-09-11T01:08:59.641Z,15.00
2018-09-11T01:11:28.581Z,15.00
2018-09-11T01:13:57.526Z,15.00
2018-09-11T01:16:26.595Z,15.00
2018-09-11T01:18:55.510Z,15.10
2018-09-11T01:21:24.465Z,15.10
2018-09-11T01:23:53.625Z,15.10
2018-09-11T01:26:22.611Z,15.00
2018-09-11T01:28:51.618Z,15.00
2018-09-11T01:31:20.558Z,15.00
2018-09-11T01:33:49.508Z,15.00
2018-09-11T01:36:18.473Z,15.00
2018-09-11T01:38:47.426Z,15.00
2018-09-11T01:41:16.361Z,15.00
2018-09-11T01:43:45.303Z,14.90
2018-09-11T01:46:14.343Z,14.90
2018-09-11T01:48:43.310Z,14.90
2018-09-11T01:51:12.333Z,14.90
2018-09-11T01:53:41.358Z,14.80
2018-09-11T01:56:10.332Z,14.80
2018-09-11T01:58:39.360Z,14.80
2018-09-11T02:01:08.343Z,14.80
2018-09-11T02:03:37.301Z,14.80
2018-09-11T02:06:06.264Z,14.80
2018-09-11T02:08:35.181Z,14.80
2018-09-11T02:11:04.186Z,14.70
2018-09-11T02:13:33.125Z,14.70
2018-09-11T02:16:02.055Z,14.70
2018-09-11T02:18:31.022Z,14.70
2018-09-11T02:21:00.050Z,14.70
2018-09-11T02:23:29.026Z,14.60
2018-09-11T02:25:58.060Z,14.60
2018-09-11T02:28:26.997Z,14.60
2018-09-11T02:30:56.209Z,14.70
2018-09-11T02:33:25.160Z,14.70
2018-09-11T02:35:54.149Z,14.60
2018-09-11T02:38:23.063Z,14.60
2018-09-11T02:40:51.994Z,14.60
2018-09-11T02:43:20.931Z,14.60
2018-09-11T02:45:50.189Z,14.60
2018-09-11T02:48:19.218Z,14.60
2018-09-11T02:50:48.153Z,14.60
2018-09-11T02:53:17.127Z,14.60
2018-09-11T02:55:46.094Z,14.60
2018-09-11T02:58:15.026Z,14.50
2018-09-11T03:00:43.980Z,14.60
2018-09-11T03:03:12.991Z,14.60
2018-09-11T03:05:41.936Z,14.60
2018-09-11T03:08:10.974Z,14.60
2018-09-11T03:10:39.914Z,14.60
2018-09-11T03:13:09.154Z,14.60
2018-09-11T03:15:38.078Z,14.60
2018-09-11T03:18:07.731Z,14.60
2018-09-11T03:20:36.642Z,14.60
2018-09-11T03:23:05.603Z,14.60
2018-09-11T03:25:34.688Z,14.70
2018-09-11T03:28:03.791Z,14.80
2018-09-11T03:30:33.821Z,14.80
2018-09-11T03:33:02.773Z,14.90
2018-09-11T03:35:31.766Z,15.00
2018-09-11T03:38:00.794Z,15.00
2018-09-11T03:40:29.758Z,15.10
2018-09-11T03:42:58.789Z,15.20
2018-09-11T03:45:27.730Z,15.20
2018-09-11T03:47:56.774Z,15.30
2018-09-11T03:50:25.729Z,15.30
2018-09-11T03:52:54.742Z,15.40
2018-09-11T03:55:23.785Z,15.30
2018-09-11T03:57:53.976Z,15.40
2018-09-11T04:00:23.047Z,15.40
2018-09-11T04:02:52.076Z,15.30
2018-09-11T04:05:21.077Z,15.40
2018-09-11T04:07:50.026Z,15.30
2018-09-11T04:10:19.073Z,15.40
2018-09-11T04:12:48.314Z,15.40
2018-09-11T04:15:17.389Z,15.30
2018-09-11T04:17:46.413Z,15.40
2018-09-11T04:20:15.433Z,15.30
2018-09-11T04:22:44.378Z,15.30
2018-09-11T04:25:13.411Z,15.30
2018-09-11T04:27:42.361Z,15.30
2018-09-11T04:30:11.305Z,15.30
2018-09-11T04:32:40.240Z,15.50
2018-09-11T04:35:09.200Z,15.40
2018-09-11T04:37:38.166Z,15.40
2018-09-11T04:40:07.098Z,15.40
2018-09-11T04:42:36.033Z,15.40
2018-09-11T04:45:05.386Z,15.40
2018-09-11T04:47:34.330Z,15.40
2018-09-11T04:50:03.339Z,15.40
2018-09-11T04:52:32.341Z,15.50
2018-09-11T04:55:01.343Z,15.50
2018-09-11T04:57:30.301Z,15.50
2018-09-11T04:59:59.390Z,15.50
2018-09-11T05:02:28.424Z,15.50
2018-09-11T05:04:57.355Z,15.60
2018-09-11T05:07:26.312Z,15.60
2018-09-11T05:09:55.297Z,15.60
2018-09-11T05:12:24.266Z,15.60
2018-09-11T05:14:53.196Z,15.60
2018-09-11T05:17:22.202Z,15.70
2018-09-11T05:19:51.342Z,15.70
2018-09-11T05:22:20.347Z,15.80
2018-09-11T05:24:49.358Z,15.90
2018-09-11T05:27:18.385Z,15.90
2018-09-11T05:29:47.394Z,15.90
2018-09-11T05:32:16.431Z,16.00
2018-09-11T05:34:45.398Z,16.00
2018-09-11T05:37:14.470Z,16.00
2018-09-11T05:39:43.542Z,16.00
2018-09-11T05:42:12.478Z,16.00
2018-09-11T05:44:41.425Z,16.10
2018-09-11T05:47:10.371Z,16.10
2018-09-11T05:49:39.319Z,16.20
2018-09-11T05:52:08.249Z,16.20
2018-09-11T05:54:37.237Z,16.20
2018-09-11T05:57:06.359Z,16.30
2018-09-11T05:59:35.320Z,16.40
2018-09-11T06:02:04.250Z,16.40
2018-09-11T06:04:33.241Z,16.50
2018-09-11T06:07:02.182Z,16.50
2018-09-11T06:09:31.121Z,16.50
2018-09-11T06:12:00.246Z,16.50
2018-09-11T06:14:29.159Z,16.50
2018-09-11T06:16:58.081Z,16.50
2018-09-11T06:19:27.054Z,16.60
2018-09-11T06:21:55.974Z,16.60
2018-09-11T06:24:24.984Z,16.70
2018-09-11T06:26:53.905Z,16.80
2018-09-11T06:29:23.038Z,17.10
2018-09-11T06:31:51.956Z,17.20
2018-09-11T06:34:20.903Z,17.40
2018-09-11T06:36:49.853Z,17.60
2018-09-11T06:39:18.782Z,17.80
2018-09-11T06:41:47.697Z,17.90
2018-09-11T06:44:16.641Z,18.00
2018-09-11T06:46:47.409Z,18.00
2018-09-11T06:49:16.474Z,18.10
2018-09-11T06:51:45.425Z,18.10
2018-09-11T06:54:14.391Z,18.10
2018-09-11T06:56:43.318Z,18.20
2018-09-11T06:59:12.276Z,18.30
2018-09-11T07:01:41.220Z,18.40
2018-09-11T07:04:10.363Z,18.40
2018-09-11T07:06:39.277Z,18.50
2018-09-11T07:09:09.482Z,18.60
2018-09-11T07:11:38.530Z,18.80
2018-09-11T07:14:07.338Z,18.90
2018-09-11T07:16:36.318Z,18.90
2018-09-11T07:19:05.276Z,19.00
2018-09-11T07:21:34.241Z,19.00
2018-09-11T07:24:03.309Z,19.10
2018-09-11T07:26:32.482Z,19.20
2018-09-11T07:29:01.405Z,19.30
2018-09-11T07:31:30.327Z,19.30
2018-09-11T07:33:59.267Z,19.20
2018-09-11T07:36:28.303Z,19.10
2018-09-11T07:38:57.185Z,18.90
2018-09-11T07:41:26.095Z,18.80
2018-09-11T07:43:55.057Z,18.70
2018-09-11T07:46:23.990Z,18.70
2018-09-11T07:48:53.011Z,18.70
2018-09-11T07:51:21.955Z,18.70
2018-09-11T07:53:50.974Z,18.70
2018-09-11T07:56:19.961Z,18.70
2018-09-11T07:58:48.936Z,18.80
2018-09-11T08:01:17.887Z,18.80
2018-09-11T08:03:46.916Z,18.90
2018-09-11T08:06:15.867Z,18.90
2018-09-11T08:08:45.584Z,19.00
2018-09-11T08:11:15.059Z,19.00
2018-09-11T08:13:44.222Z,19.10
2018-09-11T08:16:13.198Z,19.20
2018-09-11T08:18:42.193Z,19.30
2018-09-11T08:21:11.237Z,19.40
2018-09-11T08:23:40.163Z,19.70
2018-09-11T08:26:09.106Z,19.80
2018-09-11T08:28:38.079Z,19.90
2018-09-11T08:31:07.009Z,20.00
2018-09-11T08:33:35.979Z,20.10
2018-09-11T08:36:04.916Z,20.30
2018-09-11T08:38:33.873Z,20.40
2018-09-11T08:41:02.894Z,20.70
2018-09-11T08:43:31.761Z,20.80
2018-09-11T08:46:00.737Z,20.80
2018-09-11T08:48:29.726Z,20.90
2018-09-11T08:50:58.687Z,20.90
2018-09-11T08:53:28.486Z,20.90
2018-09-11T08:55:57.426Z,21.00
2018-09-11T08:58:26.365Z,21.00
2018-09-11T09:00:55.351Z,20.90
2018-09-11T09:03:24.261Z,21.10
2018-09-11T09:05:53.204Z,21.20
2018-09-11T09:08:22.410Z,21.30
2018-09-11T09:10:51.438Z,21.30
2018-09-11T09:13:20.787Z,21.20
2018-09-11T09:15:49.721Z,21.30
2018-09-11T09:18:18.685Z,21.50
2018-09-11T09:20:47.732Z,21.70
2018-09-11T09:23:16.761Z,21.80
2018-09-11T09:25:45.719Z,22.00
2018-09-11T09:28:14.686Z,22.10
2018-09-11T09:30:43.679Z,22.30
2018-09-11T09:33:12.665Z,22.40
2018-09-11T09:35:41.606Z,22.20
2018-09-11T09:38:10.589Z,22.20
2018-09-11T09:40:39.532Z,22.20
2018-09-11T09:43:08.506Z,22.30
2018-09-11T09:45:37.541Z,22.40
2018-09-11T09:48:06.563Z,22.50
2018-09-11T09:50:35.563Z,22.80
2018-09-11T09:53:04.504Z,23.20
2018-09-11T09:55:33.548Z,23.40
2018-09-11T09:58:02.582Z,23.50
2018-09-11T10:00:36.825Z,23.60
2018-09-11T10:03:05.839Z,23.50
2018-09-11T10:05:34.829Z,23.40
2018-09-11T10:08:03.769Z,23.30
2018-09-11T10:10:32.765Z,23.40
2018-09-11T10:13:01.707Z,23.40
2018-09-11T10:15:30.786Z,23.50
2018-09-11T10:17:59.735Z,23.70
2018-09-11T10:20:28.657Z,23.80
2018-09-11T10:22:57.602Z,23.90
2018-09-11T10:25:26.541Z,23.90
2018-09-11T10:27:55.491Z,23.90
2018-09-11T10:30:24.440Z,23.90
2018-09-11T10:32:53.430Z,24.00
2018-09-11T10:35:22.378Z,24.10
2018-09-11T10:37:51.307Z,24.30
2018-09-11T10:40:20.262Z,24.30
2018-09-11T10:42:49.202Z,24.30
2018-09-11T10:45:19.202Z,24.20
2018-09-11T10:47:48.168Z,24.50
2018-09-11T10:50:17.109Z,24.50
2018-09-11T10:52:46.037Z,24.60
2018-09-11T10:55:15.041Z,24.70
2018-09-11T10:57:44.021Z,24.90
2018-09-11T11:00:12.976Z,25.00
2018-09-11T11:02:42.058Z,24.90
2018-09-11T11:05:10.975Z,24.70
2018-09-11T11:07:40.604Z,24.60
2018-09-11T11:10:09.528Z,24.60
2018-09-11T11:12:38.468Z,24.70
2018-09-11T11:15:07.455Z,24.70
2018-09-11T11:17:36.404Z,24.90
2018-09-11T11:20:05.442Z,24.90
2018-09-11T11:22:34.390Z,25.30
2018-09-11T11:25:03.316Z,25.50
2018-09-11T11:27:32.284Z,25.40
2018-09-11T11:30:01.248Z,25.40
2018-09-11T11:32:30.178Z,25.50
2018-09-11T11:34:59.130Z,25.50
2018-09-11T11:37:28.293Z,25.60
2018-09-11T11:39:57.050Z,25.60
2018-09-11T11:42:26.071Z,25.70
2018-09-11T11:44:54.974Z,25.80
2018-09-11T11:47:23.975Z,25.80
2018-09-11T11:49:53.271Z,25.90
2018-09-11T11:52:22.237Z,26.00
2018-09-11T11:54:51.572Z,26.10
2018-09-11T11:57:20.453Z,26.10
2018-09-11T11:59:49.434Z,25.90
2018-09-11T12:02:18.443Z,26.00
2018-09-11T12:04:47.397Z,26.10
2018-09-11T12:07:16.322Z,26.10
2018-09-11T12:09:45.276Z,26.10
2018-09-11T12:12:14.226Z,26.30
2018-09-11T12:14:43.190Z,26.50
2018-09-11T12:17:12.311Z,26.70
2018-09-11T12:19:41.253Z,26.70
2018-09-11T12:22:10.188Z,26.80
2018-09-11T12:24:39.131Z,26.80
2018-09-11T12:27:08.076Z,26.80
2018-09-11T12:29:37.019Z,26.90
2018-09-11T12:32:06.040Z,26.90
2018-09-11T12:34:34.989Z,26.90
2018-09-11T12:37:03.924Z,27.00
2018-09-11T12:39:32.862Z,26.90
2018-09-11T12:42:01.808Z,27.10
2018-09-11T12:44:30.737Z,27.20
2018-09-11T12:46:59.796Z,27.20
2018-09-11T12:49:29.084Z,27.20
2018-09-11T12:51:58.053Z,27.20
2018-09-11T12:54:27.011Z,27.20
2018-09-11T12:56:55.942Z,27.30
2018-09-11T12:59:24.889Z,27.20
2018-09-11T13:01:53.836Z,27.30
2018-09-11T13:04:22.823Z,27.20
2018-09-11T13:06:51.737Z,27.30
2018-09-11T13:09:20.730Z,27.30
2018-09-11T13:11:49.689Z,27.20
2018-09-11T13:14:18.632Z,27.20
2018-09-11T13:16:47.658Z,27.30
2018-09-11T13:19:17.612Z,27.20
2018-09-11T13:21:46.945Z,27.30
2018-09-11T13:24:15.909Z,27.40
2018-09-11T13:26:44.855Z,27.50
2018-09-11T13:29:13.810Z,27.60
2018-09-11T13:31:42.791Z,27.70
2018-09-11T13:34:11.739Z,27.70
2018-09-11T13:36:40.727Z,27.80
2018-09-11T13:39:10.259Z,27.60
2018-09-11T13:41:39.175Z,27.50
2018-09-11T13:44:08.160Z,27.60
2018-09-11T13:46:37.109Z,27.60
2018-09-11T13:49:06.067Z,27.60
2018-09-11T13:51:35.007Z,27.60
2018-09-11T13:54:03.969Z,27.60
2018-09-11T13:56:32.921Z,27.60
2018-09-11T13:59:01.877Z,27.50
2018-09-11T14:01:30.830Z,27.40
2018-09-11T14:03:59.797Z,27.50
2018-09-11T14:06:28.747Z,27.50
2018-09-11T14:08:57.688Z,27.50
2018-09-11T14:11:26.610Z,27.50
2018-09-11T14:13:55.556Z,27.60
2018-09-11T14:16:24.482Z,27.60
2018-09-11T14:18:53.459Z,27.50
2018-09-11T14:21:22.449Z,27.50
2018-09-11T14:23:51.466Z,27.50
2018-09-11T14:26:20.443Z,27.60
2018-09-11T14:28:49.515Z,27.50
2018-09-11T14:31:18.637Z,27.50
2018-09-11T14:33:47.582Z,27.50
2018-09-11T14:36:16.520Z,27.40
2018-09-11T14:38:45.485Z,27.50
2018-09-11T14:41:15.425Z,27.50
2018-09-11T14:43:44.423Z,27.50
2018-09-11T14:46:13.373Z,27.50
2018-09-11T14:48:42.439Z,27.40
2018-09-11T14:51:11.510Z,27.20
2018-09-11T14:53:40.510Z,27.20
2018-09-11T14:56:09.494Z,27.30
2018-09-11T14:58:38.531Z,27.50
2018-09-11T15:01:07.478Z,27.50
2018-09-11T15:03:36.431Z,27.50
2018-09-11T15:06:05.409Z,27.50
2018-09-11T15:08:34.361Z,27.50
2018-09-11T15:11:03.330Z,27.40
2018-09-11T15:13:32.270Z,27.30
2018-09-11T15:16:01.617Z,27.30
2018-09-11T15:18:30.589Z,27.30
2018-09-11T15:20:59.580Z,27.30
2018-09-11T15:23:28.532Z,27.20
2018-09-11T15:25:58.556Z,27.20
2018-09-11T15:28:27.485Z,27.20
2018-09-11T15:30:56.425Z,27.20
2018-09-11T15:33:25.397Z,27.20
2018-09-11T15:35:54.391Z,27.10
2018-09-11T15:38:23.257Z,26.90
2018-09-11T15:40:52.493Z,26.90
2018-09-11T15:43:22.122Z,26.90
2018-09-11T15:45:51.174Z,26.80
2018-09-11T15:48:21.246Z,26.70
2018-09-11T15:50:50.276Z,26.70
2018-09-11T15:53:19.626Z,26.70
2018-09-11T15:55:48.744Z,26.70
2018-09-11T15:58:18.743Z,26.70
2018-09-11T16:00:47.747Z,26.60
2018-09-11T16:03:16.739Z,26.50
2018-09-11T16:05:45.777Z,26.50
2018-09-11T16:08:14.907Z,26.50
2018-09-11T16:10:44.071Z,26.40
2018-09-11T16:13:13.017Z,26.40
2018-09-11T16:15:42.004Z,26.30
2018-09-11T16:18:11.098Z,26.30
2018-09-11T16:20:40.098Z,26.30
2018-09-11T16:23:09.241Z,26.20
2018-09-11T16:25:38.257Z,26.10
2018-09-11T16:28:07.206Z,26.10
2018-09-11T16:30:36.229Z,26.10
2018-09-11T16:33:05.248Z,26.10
2018-09-11T16:35:34.325Z,26.10
2018-09-11T16:38:03.605Z,26.00
2018-09-11T16:40:32.633Z,25.90
2018-09-11T16:43:01.794Z,25.80
2018-09-11T16:45:30.813Z,25.70
2018-09-11T16:48:00.043Z,25.60
2018-09-11T16:50:29.135Z,25.50
2018-09-11T16:52:58.066Z,25.50
2018-09-11T16:55:27.016Z,25.40
2018-09-11T16:57:56.047Z,25.40
2018-09-11T17:00:25.127Z,25.30
2018-09-11T17:02:54.152Z,25.20
2018-09-11T17:05:23.175Z,25.20
2018-09-11T17:07:52.165Z,25.10
2018-09-11T17:10:21.132Z,25.10
2018-09-11T17:12:50.142Z,25.00
2018-09-11T17:15:19.137Z,25.00
2018-09-11T17:17:48.086Z,24.90
2018-09-11T17:20:17.230Z,24.90
2018-09-11T17:22:46.115Z,24.90
2018-09-11T17:25:15.109Z,24.80
2018-09-11T17:27:44.125Z,24.80
2018-09-11T17:30:13.184Z,24.70
2018-09-11T17:32:42.186Z,24.70
2018-09-11T17:35:11.185Z,24.60
2018-09-11T17:37:40.178Z,24.50
2018-09-11T17:40:09.146Z,24.50
2018-09-11T17:42:38.124Z,24.40
2018-09-11T17:45:07.085Z,24.30
2018-09-11T17:47:36.038Z,24.20
2018-09-11T17:50:05.239Z,24.20
2018-09-11T17:52:34.237Z,24.00
2018-09-11T17:55:03.168Z,23.90
2018-09-11T17:57:32.158Z,23.80
2018-09-11T18:00:01.092Z,23.70
2018-09-11T18:02:30.130Z,23.60
2018-09-11T18:04:59.074Z,23.60
2018-09-11T18:07:28.055Z,23.40
2018-09-11T18:09:57.002Z,23.30
2018-09-11T18:12:25.941Z,23.10
2018-09-11T18:14:54.886Z,23.10
2018-09-11T18:17:23.850Z,22.90
2018-09-11T18:19:52.774Z,22.80
2018-09-11T18:22:21.759Z,22.80
2018-09-11T18:24:50.734Z,22.70
2018-09-11T18:27:19.746Z,22.60
2018-09-11T18:29:48.814Z,22.60
2018-09-11T18:32:18.598Z,22.40
2018-09-11T18:34:47.722Z,22.30
2018-09-11T18:37:16.886Z,22.20
2018-09-11T18:39:45.876Z,22.10
2018-09-11T18:42:15.085Z,22.00
2018-09-11T18:44:44.125Z,21.90
2018-09-11T18:47:13.263Z,21.90
2018-09-11T18:49:42.382Z,21.90
2018-09-11T18:52:11.339Z,21.90
2018-09-11T18:54:42.504Z,21.90
2018-09-11T18:57:11.474Z,21.90
2018-09-11T18:59:40.446Z,21.90
2018-09-11T19:02:09.390Z,22.00
2018-09-11T19:04:38.942Z,22.00
2018-09-11T19:07:07.910Z,22.00
2018-09-11T19:09:36.862Z,22.00
2018-09-11T19:12:06.259Z,22.10
2018-09-11T19:14:35.257Z,22.20
2018-09-11T19:17:04.204Z,22.20
2018-09-11T19:19:33.138Z,22.20
2018-09-11T19:22:02.076Z,22.30
2018-09-11T19:24:31.019Z,22.30
2018-09-11T19:27:00.023Z,22.30
2018-09-11T19:29:28.962Z,22.30
2018-09-11T19:31:57.929Z,22.20
2018-09-11T19:34:26.865Z,22.20
2018-09-11T19:36:55.809Z,22.20
2018-09-11T19:39:24.773Z,22.20
2018-09-11T19:41:53.725Z,22.20
2018-09-11T19:44:22.666Z,22.20
2018-09-11T19:46:51.633Z,22.10
2018-09-11T19:49:20.579Z,22.10
2018-09-11T19:51:49.520Z,22.00
2018-09-11T19:54:18.574Z,22.00
2018-09-11T19:56:47.577Z,21.90
2018-09-11T19:59:16.589Z,21.80
2018-09-11T20:01:45.593Z,21.80
2018-09-11T20:04:15.713Z,21.70
2018-09-11T20:06:44.771Z,21.70
2018-09-11T20:09:13.806Z,21.60
2018-09-11T20:11:42.818Z,21.50
2018-09-11T20:14:11.793Z,21.50
2018-09-11T20:16:41.183Z,21.50
2018-09-11T20:19:10.278Z,21.40
2018-09-11T20:21:39.316Z,21.40
2018-09-11T20:24:08.301Z,21.40
2018-09-11T20:26:37.502Z,21.30
2018-09-11T20:29:06.478Z,21.30
2018-09-11T20:31:35.545Z,21.20
2018-09-11T20:34:04.478Z,21.20
2018-09-11T20:36:33.421Z,21.10
2018-09-11T20:39:02.825Z,21.10
2018-09-11T20:41:31.930Z,21.00
2018-09-11T20:44:00.969Z,20.90
2018-09-11T20:46:30.218Z,20.90
2018-09-11T20:48:59.130Z,20.80
2018-09-11T20:51:28.113Z,20.80
2018-09-11T20:53:57.058Z,20.80
2018-09-11T20:56:26.105Z,20.70
2018-09-11T20:58:55.134Z,20.70
2018-09-11T21:01:24.111Z,20.70
2018-09-11T21:03:53.050Z,20.60
2018-09-11T21:06:22.110Z,20.60
2018-09-11T21:08:51.049Z,20.60
2018-09-11T21:11:20.012Z,20.50
2018-09-11T21:13:48.941Z,20.50
2018-09-11T21:16:17.920Z,20.50
2018-09-11T21:18:46.888Z,20.40
2018-09-11T21:21:15.829Z,20.30
2018-09-11T21:23:44.801Z,20.20
2018-09-11T21:26:13.750Z,20.20
2018-09-11T21:28:42.705Z,20.20
2018-09-11T21:31:11.670Z,20.20
2018-09-11T21:33:40.622Z,20.10
2018-09-11T21:36:09.581Z,20.00
2018-09-11T21:38:38.535Z,20.00
2018-09-11T21:41:07.518Z,20.00
2018-09-11T21:43:36.486Z,20.00
2018-09-11T21:46:05.453Z,19.90
2018-09-11T21:48:34.415Z,19.90
2018-09-11T21:51:03.353Z,19.80
2018-09-11T21:53:32.303Z,19.80
2018-09-11T21:56:01.334Z,19.80
2018-09-11T21:58:30.281Z,19.80
2018-09-11T22:01:06.479Z,19.70
2018-09-11T22:03:35.441Z,19.70
2018-09-11T22:06:04.362Z,19.70
2018-09-11T22:08:33.352Z,19.60
2018-09-11T22:11:02.293Z,19.70
2018-09-11T22:13:31.237Z,19.60
2018-09-11T22:16:00.180Z,19.60
2018-09-11T22:18:29.236Z,19.50
2018-09-11T22:20:58.173Z,19.50
2018-09-11T22:23:27.154Z,19.50
2018-09-11T22:25:56.105Z,19.50
2018-09-11T22:28:25.034Z,19.50
2018-09-11T22:30:53.989Z,19.50
2018-09-11T22:33:23.078Z,19.50
2018-09-11T22:35:52.055Z,19.50
2018-09-11T22:38:21.016Z,19.50
2018-09-11T22:40:50.001Z,19.50
2018-09-11T22:43:18.938Z,19.40
2018-09-11T22:45:47.888Z,19.40
2018-09-11T22:48:16.889Z,19.40
2018-09-11T22:50:45.830Z,19.40
2018-09-11T22:53:14.783Z,19.30
2018-09-11T22:55:43.713Z,19.30
2018-09-11T22:58:12.671Z,19.40
2018-09-11T23:00:41.741Z,19.40
2018-09-11T23:03:10.674Z,19.40
2018-09-11T23:05:39.610Z,19.30
2018-09-11T23:08:08.529Z,19.30
2018-09-11T23:10:37.514Z,19.30
2018-09-11T23:13:06.425Z,19.30
2018-09-11T23:15:35.622Z,19.40
2018-09-11T23:18:04.661Z,19.30
2018-09-11T23:20:33.609Z,19.30
2018-09-11T23:23:02.528Z,19.30
2018-09-11T23:25:31.493Z,19.30
2018-09-11T23:28:00.507Z,19.40
2018-09-11T23:30:29.434Z,19.30
2018-09-11T23:32:58.413Z,19.30
2018-09-11T23:35:27.473Z,19.40
2018-09-11T23:37:56.600Z,19.40
2018-09-11T23:40:25.553Z,19.40
2018-09-11T23:42:54.592Z,19.40
2018-09-11T23:45:23.737Z,19.40
2018-09-11T23:47:52.668Z,19.40
2018-09-11T23:50:21.621Z,19.40
2018-09-11T23:52:50.562Z,19.40
2018-09-11T23:55:19.502Z,19.40
2018-09-11T23:57:48.561Z,19.30
